createdAt,value
2022-12-13T00:02:01.014Z,28.67
2022-12-13T00:07:49.120Z,32.67
2022-12-13T00:13:23.502Z,29.03
2022-12-13T00:19:16.962Z,27.73
2022-12-13T00:22:04.995Z,27.97
2022-12-13T00:27:44.313Z,29.80
2022-12-13T00:33:16.170Z,28.23
2022-12-13T00:38:51.694Z,27.23
2022-12-13T00:41:43.625Z,29.87
2022-12-13T00:44:32.082Z,25.70
2022-12-13T00:50:12.990Z,29.17
2022-12-13T00:55:46.265Z,29.83
2022-12-13T01:01:24.836Z,27.60
2022-12-13T01:04:13.527Z,28.03
2022-12-13T01:07:02.170Z,30.13
2022-12-13T01:12:32.355Z,29.33
2022-12-13T01:18:10.559Z,27.87
2022-12-13T01:23:57.164Z,23.30
2022-12-13T01:29:27.015Z,29.03
2022-12-13T01:35:04.336Z,25.90
2022-12-13T01:40:38.528Z,26.20
2022-12-13T01:46:06.643Z,25.30
2022-12-13T01:51:40.509Z,27.57
2022-12-13T01:57:20.660Z,28.53
2022-12-13T02:00:14.176Z,26.07
2022-12-13T02:05:49.204Z,26.80
2022-12-13T02:14:09.831Z,28.67
2022-12-13T02:20:21.736Z,23.60
2022-12-13T02:23:20.895Z,22.77
2022-12-13T02:26:27.542Z,24.53
2022-12-13T02:32:13.791Z,23.83
2022-12-13T02:35:06.640Z,26.13
2022-12-13T02:40:37.469Z,23.73
2022-12-13T02:46:12.314Z,24.37
2022-12-13T02:51:42.908Z,23.20
2022-12-13T02:54:31.861Z,25.83
2022-12-13T03:00:22.038Z,25.80
2022-12-13T03:03:18.809Z,23.50
2022-12-13T03:06:34.157Z,21.67
2022-12-13T03:12:42.518Z,22.33
2022-12-13T03:18:21.126Z,27.13
2022-12-13T03:23:54.242Z,20.67
2022-12-13T03:26:43.031Z,20.87
2022-12-13T03:32:31.166Z,21.80
2022-12-13T03:40:58.882Z,25.40
2022-12-13T03:46:33.125Z,20.87
2022-12-13T03:52:02.337Z,21.03
2022-12-13T03:57:36.046Z,21.73
2022-12-13T04:03:13.314Z,21.93
2022-12-13T04:08:54.103Z,24.90
2022-12-13T04:14:23.198Z,22.07
2022-12-13T04:17:12.628Z,20.77
2022-12-13T04:22:42.113Z,19.60
2022-12-13T04:28:25.210Z,18.57
2022-12-13T04:33:58.149Z,23.00
2022-12-13T04:39:33.912Z,18.90
2022-12-13T04:45:03.719Z,22.77
2022-12-13T04:50:38.217Z,20.00
2022-12-13T04:59:14.028Z,19.80
2022-12-13T05:04:40.832Z,21.43
2022-12-13T05:10:32.123Z,22.00
2022-12-13T05:18:51.293Z,21.53
2022-12-13T05:24:31.459Z,18.93
2022-12-13T05:27:24.908Z,19.60
2022-12-13T05:33:01.815Z,19.30
2022-12-13T05:35:52.894Z,18.93
2022-12-13T05:41:33.311Z,19.13
2022-12-13T05:47:02.973Z,18.07
2022-12-13T05:52:38.016Z,19.83
2022-12-13T05:58:13.283Z,19.47
2022-12-13T06:03:48.070Z,21.33
2022-12-13T06:09:25.140Z,19.33
2022-12-13T06:15:01.694Z,19.33
2022-12-13T06:17:50.523Z,18.27
2022-12-13T06:23:24.430Z,17.17
2022-12-13T06:28:54.327Z,21.17
2022-12-13T06:34:26.366Z,17.57
2022-12-13T06:40:01.051Z,18.13
2022-12-13T06:45:31.675Z,17.30
2022-12-13T06:51:03.318Z,15.53
2022-12-13T06:56:38.774Z,16.30
2022-12-13T06:59:27.236Z,16.33
2022-12-13T07:04:58.815Z,19.63
2022-12-13T07:07:47.651Z,19.47
2022-12-13T07:13:26.976Z,19.00
2022-12-13T07:19:00.746Z,18.43
2022-12-13T07:24:29.697Z,18.37
2022-12-13T07:30:15.049Z,20.53
2022-12-13T07:35:55.707Z,18.67
2022-12-13T07:41:32.644Z,16.90
2022-12-13T07:47:06.930Z,19.50
2022-12-13T07:52:36.679Z,18.53
2022-12-13T07:55:33.605Z,15.57
2022-12-13T08:01:00.646Z,19.00
2022-12-13T08:06:28.970Z,18.67
2022-12-13T08:12:08.606Z,17.73
2022-12-13T08:17:42.989Z,17.33
2022-12-13T08:26:02.556Z,19.27
2022-12-13T08:31:38.949Z,13.30
2022-12-13T08:34:27.256Z,17.07
2022-12-13T08:40:05.574Z,16.63
2022-12-13T08:51:24.636Z,15.20
2022-12-13T08:56:54.281Z,13.93
2022-12-13T08:59:42.436Z,13.90
2022-12-13T09:05:34.061Z,16.97
2022-12-13T09:11:00.678Z,16.53
2022-12-13T09:16:35.916Z,14.53
2022-12-13T09:22:33.168Z,16.87
2022-12-13T09:25:24.282Z,15.37
2022-12-13T09:30:49.773Z,16.93
2022-12-13T09:36:21.808Z,16.60
2022-12-13T09:44:43.774Z,17.47
2022-12-13T09:50:15.045Z,16.73
2022-12-13T10:01:22.543Z,17.13
2022-12-13T10:07:03.584Z,15.13
2022-12-13T10:12:44.586Z,16.27
2022-12-13T10:18:16.111Z,19.93
2022-12-13T10:24:23.159Z,16.70
2022-12-13T10:29:22.443Z,19.13
2022-12-13T10:32:14.949Z,14.50
2022-12-13T10:38:31.572Z,18.97
2022-12-13T10:54:48.342Z,18.33
2022-12-13T11:00:44.488Z,18.60
2022-12-13T11:09:02.927Z,16.60
2022-12-13T11:17:24.406Z,18.47
2022-12-13T11:23:04.942Z,19.07
2022-12-13T11:31:24.898Z,17.93
2022-12-13T11:40:01.653Z,18.73
2022-12-13T11:45:32.460Z,16.13
2022-12-13T11:51:13.212Z,18.10
2022-12-13T11:54:04.514Z,18.43
2022-12-13T11:57:00.717Z,21.47
2022-12-13T12:05:31.764Z,13.87
2022-12-13T12:11:13.433Z,17.03
2022-12-13T12:16:48.288Z,19.20
2022-12-13T12:22:24.220Z,17.30
2022-12-13T12:28:13.291Z,15.97
2022-12-13T12:33:52.315Z,16.57
2022-12-13T13:13:12.594Z,19.10
2022-12-13T13:15:59.318Z,15.50
2022-12-13T13:36:52.692Z,19.10
2022-12-13T13:43:21.502Z,15.10
2022-12-13T13:46:13.774Z,19.17
2022-12-13T13:52:24.456Z,15.83
2022-12-13T13:55:37.378Z,16.40
2022-12-13T14:05:23.598Z,15.90
2022-12-13T14:33:31.981Z,17.93
2022-12-13T14:39:24.746Z,16.97
2022-12-13T14:45:22.124Z,17.63
2022-12-13T14:48:28.474Z,17.47
2022-12-13T14:59:18.788Z,18.43
2022-12-13T15:07:49.274Z,18.93
2022-12-13T15:10:40.695Z,19.83
2022-12-13T15:16:11.895Z,16.07
2022-12-13T15:22:01.717Z,18.87
2022-12-13T15:27:34.626Z,20.23
2022-12-13T15:39:02.912Z,18.13
2022-12-13T15:44:40.533Z,19.47
2022-12-13T15:50:36.163Z,18.10
2022-12-13T15:59:29.248Z,18.53
2022-12-13T16:05:09.394Z,20.47
2022-12-13T16:10:49.733Z,15.83
2022-12-13T16:16:28.326Z,17.43
2022-12-13T16:27:32.719Z,17.73
2022-12-13T16:33:28.638Z,17.60
2022-12-13T16:36:16.951Z,21.73
2022-12-13T16:41:54.528Z,22.73
2022-12-13T16:44:43.266Z,25.23
2022-12-13T16:47:41.859Z,18.07
2022-12-13T16:50:43.046Z,20.03
2022-12-13T16:53:31.589Z,18.97
2022-12-13T16:59:10.454Z,18.93
2022-12-13T17:04:50.396Z,19.87
2022-12-13T17:07:38.822Z,16.77
2022-12-13T17:13:10.841Z,18.83
2022-12-13T17:18:51.880Z,16.63
2022-12-13T17:24:26.287Z,20.87
2022-12-13T17:27:14.543Z,20.07
2022-12-13T17:30:08.256Z,21.50
2022-12-13T17:35:51.591Z,16.90
2022-12-13T17:42:30.035Z,19.33
2022-12-13T17:48:01.287Z,17.20
2022-12-13T17:56:39.440Z,19.30
2022-12-13T17:59:28.163Z,21.73
2022-12-13T18:05:17.721Z,20.10
2022-12-13T18:13:34.233Z,20.23
2022-12-13T18:19:09.860Z,18.23
2022-12-13T18:27:38.107Z,21.20
2022-12-13T18:30:28.006Z,17.90
2022-12-13T18:33:17.008Z,23.23
2022-12-13T18:38:55.403Z,17.33
2022-12-13T18:44:32.376Z,18.27
2022-12-13T18:50:04.537Z,18.90
2022-12-13T18:52:52.986Z,19.70
2022-12-13T18:58:27.455Z,18.77
2022-12-13T19:04:03.178Z,21.97
2022-12-13T19:06:52.950Z,21.90
2022-12-13T19:12:31.844Z,19.80
2022-12-13T19:18:11.305Z,19.80
2022-12-13T19:23:42.497Z,21.83
2022-12-13T19:29:25.982Z,21.50
2022-12-13T19:35:21.911Z,21.23
2022-12-13T19:38:24.748Z,22.23
2022-12-13T19:41:14.795Z,19.07
2022-12-13T19:44:05.085Z,20.13
2022-12-13T19:53:00.317Z,21.87
2022-12-13T19:58:59.301Z,20.50
2022-12-13T20:07:23.793Z,20.00
2022-12-13T20:10:12.793Z,20.73
2022-12-13T20:15:51.751Z,21.00
2022-12-13T20:22:30.017Z,19.70
2022-12-13T20:30:50.343Z,29.67
2022-12-13T20:36:27.093Z,23.93
2022-12-13T20:39:15.669Z,21.20
2022-12-13T20:44:45.749Z,23.73
2022-12-13T20:47:38.029Z,22.73
2022-12-13T20:56:02.023Z,24.33
2022-12-13T20:58:52.708Z,27.63
2022-12-13T21:04:23.561Z,23.93
2022-12-13T21:10:01.946Z,23.23
2022-12-13T21:15:39.525Z,24.80
2022-12-13T21:18:29.388Z,25.90
2022-12-13T21:21:18.758Z,26.77
2022-12-13T21:24:08.206Z,22.80
2022-12-13T21:29:41.457Z,23.03
2022-12-13T21:35:43.975Z,23.90
2022-12-13T21:38:32.703Z,23.27
2022-12-13T21:52:34.456Z,25.87
2022-12-13T21:58:33.280Z,25.77
2022-12-13T22:04:12.022Z,27.73
2022-12-13T22:12:43.778Z,27.53
2022-12-13T22:18:21.143Z,25.83
2022-12-13T22:21:09.269Z,27.33
2022-12-13T22:23:58.356Z,29.57
2022-12-13T22:29:35.742Z,26.63
2022-12-13T22:35:08.487Z,27.83
2022-12-13T22:38:01.379Z,28.77
2022-12-13T22:43:37.346Z,31.00
2022-12-13T22:49:13.660Z,28.83
2022-12-13T22:54:49.777Z,29.67
2022-12-13T23:00:17.080Z,28.07
2022-12-13T23:06:08.944Z,31.83
2022-12-13T23:12:00.939Z,31.60
2022-12-13T23:17:33.363Z,25.80
2022-12-13T23:23:21.437Z,31.20
2022-12-13T23:26:14.402Z,28.90
2022-12-13T23:31:48.963Z,27.57
2022-12-13T23:34:35.883Z,26.90
2022-12-13T23:40:13.609Z,32.37
2022-12-13T23:45:45.184Z,30.83
2022-12-13T23:51:18.627Z,28.93
2022-12-13T23:56:54.059Z,25.07
